Plains, Montana
Current Conditions -  °F | °C
As of 6:53 AM on Saturday 25 Oct 2014 (Local Time) from KMLP Reporting Station
Moderate Fog Moderate Fog  
Wind Chill: 27°   Ceiling: 100
Heat Index: 36°   Visibility: 0.25mi
Dew Point: 36°   Wind: 14mph
Humidity: 100%   Direction: 160°SSE
Pressure: 29.88"   Gusts: NA
Location:  47.46°N, 114.88°W
Report Text: KMLP 251253Z AUTO 16012KT 1/4SM FG VV001 02/02 A2988 RMK AO2 SLP080 T00220022
Loading
Personal Weather Stations






























Interactive Weather Map
Tropical Storm Tracking
New forecast layout! Learn more

10-Day Weather Forecast

Advertisements
Track Severe Weather on mobile